sensor_id;sensor_type;location;lat;lon;timestamp;P1;durP1;ratioP1;P2;durP2;ratioP2
76552;SDS011;65395;53.168;18.156;2023-11-21T00:01:03;13.40;;;7.70;;
76552;SDS011;65395;53.168;18.156;2023-11-21T00:03:39;11.90;;;7.50;;
76552;SDS011;65395;53.168;18.156;2023-11-21T00:06:06;16.00;;;8.20;;
76552;SDS011;65395;53.168;18.156;2023-11-21T00:08:35;13.50;;;8.00;;
76552;SDS011;65395;53.168;18.156;2023-11-21T00:11:02;13.10;;;7.90;;
76552;SDS011;65395;53.168;18.156;2023-11-21T00:13:32;14.60;;;8.70;;
76552;SDS011;65395;53.168;18.156;2023-11-21T00:15:59;14.80;;;8.80;;
76552;SDS011;65395;53.168;18.156;2023-11-21T00:18:26;13.00;;;8.20;;
76552;SDS011;65395;53.168;18.156;2023-11-21T00:20:53;12.60;;;7.90;;
76552;SDS011;65395;53.168;18.156;2023-11-21T00:23:20;11.40;;;7.30;;
76552;SDS011;65395;53.168;18.156;2023-11-21T00:25:46;13.70;;;6.80;;
76552;SDS011;65395;53.168;18.156;2023-11-21T00:28:14;11.50;;;7.60;;
76552;SDS011;65395;53.168;18.156;2023-11-21T00:30:41;13.50;;;7.60;;
76552;SDS011;65395;53.168;18.156;2023-11-21T00:33:08;13.90;;;7.20;;
76552;SDS011;65395;53.168;18.156;2023-11-21T00:35:38;13.40;;;8.00;;
76552;SDS011;65395;53.168;18.156;2023-11-21T00:38:05;13.10;;;7.80;;
76552;SDS011;65395;53.168;18.156;2023-11-21T00:40:34;12.20;;;7.40;;
76552;SDS011;65395;53.168;18.156;2023-11-21T00:43:01;12.70;;;6.60;;
76552;SDS011;65395;53.168;18.156;2023-11-21T00:45:28;12.60;;;7.50;;
76552;SDS011;65395;53.168;18.156;2023-11-21T00:47:55;11.70;;;7.60;;
76552;SDS011;65395;53.168;18.156;2023-11-21T00:50:22;11.90;;;6.90;;
76552;SDS011;65395;53.168;18.156;2023-11-21T00:52:49;13.20;;;7.70;;
76552;SDS011;65395;53.168;18.156;2023-11-21T00:55:18;12.50;;;7.20;;
76552;SDS011;65395;53.168;18.156;2023-11-21T00:57:45;12.50;;;7.40;;
76552;SDS011;65395;53.168;18.156;2023-11-21T01:00:12;13.90;;;8.00;;
76552;SDS011;65395;53.168;18.156;2023-11-21T01:02:43;12.70;;;7.50;;
76552;SDS011;65395;53.168;18.156;2023-11-21T01:05:11;14.60;;;7.60;;
76552;SDS011;65395;53.168;18.156;2023-11-21T01:07:38;15.30;;;8.10;;
76552;SDS011;65395;53.168;18.156;2023-11-21T01:10:05;13.40;;;7.90;;
76552;SDS011;65395;53.168;18.156;2023-11-21T01:12:34;16.60;;;9.60;;
76552;SDS011;65395;53.168;18.156;2023-11-21T01:15:04;14.60;;;7.70;;
76552;SDS011;65395;53.168;18.156;2023-11-21T01:17:34;12.70;;;7.20;;
76552;SDS011;65395;53.168;18.156;2023-11-21T01:20:02;14.90;;;8.80;;
76552;SDS011;65395;53.168;18.156;2023-11-21T01:22:32;15.60;;;8.70;;
76552;SDS011;65395;53.168;18.156;2023-11-21T01:24:59;16.30;;;8.90;;
76552;SDS011;65395;53.168;18.156;2023-11-21T01:27:26;13.30;;;7.40;;
76552;SDS011;65395;53.168;18.156;2023-11-21T01:29:53;16.40;;;9.30;;
76552;SDS011;65395;53.168;18.156;2023-11-21T01:32:20;16.20;;;9.10;;
76552;SDS011;65395;53.168;18.156;2023-11-21T01:34:47;15.00;;;8.50;;
76552;SDS011;65395;53.168;18.156;2023-11-21T01:37:15;13.90;;;8.00;;
76552;SDS011;65395;53.168;18.156;2023-11-21T01:39:43;16.90;;;9.70;;
76552;SDS011;65395;53.168;18.156;2023-11-21T01:42:10;14.80;;;9.20;;
76552;SDS011;65395;53.168;18.156;2023-11-21T01:44:40;16.70;;;9.00;;
76552;SDS011;65395;53.168;18.156;2023-11-21T01:47:07;16.80;;;9.20;;
76552;SDS011;65395;53.168;18.156;2023-11-21T01:49:35;17.80;;;9.50;;
76552;SDS011;65395;53.168;18.156;2023-11-21T01:52:03;16.10;;;9.00;;
76552;SDS011;65395;53.168;18.156;2023-11-21T01:54:30;16.10;;;9.20;;
76552;SDS011;65395;53.168;18.156;2023-11-21T01:56:58;15.70;;;8.80;;
76552;SDS011;65395;53.168;18.156;2023-11-21T01:59:31;14.40;;;8.10;;
76552;SDS011;65395;53.168;18.156;2023-11-21T02:02:01;15.30;;;9.20;;
76552;SDS011;65395;53.168;18.156;2023-11-21T02:04:28;16.30;;;10.10;;
76552;SDS011;65395;53.168;18.156;2023-11-21T02:06:56;17.10;;;10.00;;
76552;SDS011;65395;53.168;18.156;2023-11-21T02:09:24;15.60;;;9.40;;
76552;SDS011;65395;53.168;18.156;2023-11-21T02:11:52;16.90;;;9.40;;
76552;SDS011;65395;53.168;18.156;2023-11-21T02:14:20;17.50;;;9.60;;
76552;SDS011;65395;53.168;18.156;2023-11-21T02:16:49;15.90;;;8.50;;
76552;SDS011;65395;53.168;18.156;2023-11-21T02:19:18;17.10;;;9.10;;
76552;SDS011;65395;53.168;18.156;2023-11-21T02:21:50;15.20;;;9.00;;
76552;SDS011;65395;53.168;18.156;2023-11-21T02:24:19;17.50;;;9.30;;
76552;SDS011;65395;53.168;18.156;2023-11-21T02:26:47;15.70;;;9.00;;
76552;SDS011;65395;53.168;18.156;2023-11-21T02:29:18;15.10;;;8.30;;
76552;SDS011;65395;53.168;18.156;2023-11-21T02:31:50;15.00;;;8.60;;
76552;SDS011;65395;53.168;18.156;2023-11-21T02:34:22;15.70;;;7.50;;
76552;SDS011;65395;53.168;18.156;2023-11-21T02:36:51;15.20;;;8.50;;
76552;SDS011;65395;53.168;18.156;2023-11-21T02:39:18;14.70;;;8.90;;
76552;SDS011;65395;53.168;18.156;2023-11-21T02:41:48;15.40;;;8.30;;
76552;SDS011;65395;53.168;18.156;2023-11-21T02:44:15;15.70;;;9.20;;
76552;SDS011;65395;53.168;18.156;2023-11-21T02:46:42;16.60;;;9.20;;
76552;SDS011;65395;53.168;18.156;2023-11-21T02:49:09;16.70;;;8.80;;
76552;SDS011;65395;53.168;18.156;2023-11-21T02:51:38;14.40;;;8.30;;
76552;SDS011;65395;53.168;18.156;2023-11-21T02:54:06;15.40;;;8.10;;
76552;SDS011;65395;53.168;18.156;2023-11-21T02:56:34;16.70;;;8.20;;
76552;SDS011;65395;53.168;18.156;2023-11-21T02:59:03;16.80;;;9.00;;
76552;SDS011;65395;53.168;18.156;2023-11-21T03:01:31;15.70;;;8.10;;
76552;SDS011;65395;53.168;18.156;2023-11-21T03:03:58;14.10;;;8.20;;
76552;SDS011;65395;53.168;18.156;2023-11-21T03:06:25;18.90;;;9.50;;
76552;SDS011;65395;53.168;18.156;2023-11-21T03:08:52;19.20;;;10.50;;
76552;SDS011;65395;53.168;18.156;2023-11-21T03:11:19;19.30;;;9.50;;
76552;SDS011;65395;53.168;18.156;2023-11-21T03:13:46;20.50;;;9.80;;
76552;SDS011;65395;53.168;18.156;2023-11-21T03:16:14;16.10;;;8.40;;
76552;SDS011;65395;53.168;18.156;2023-11-21T03:18:42;19.50;;;9.90;;
76552;SDS011;65395;53.168;18.156;2023-11-21T03:21:09;20.60;;;10.00;;
76552;SDS011;65395;53.168;18.156;2023-11-21T03:23:36;15.30;;;8.20;;
76552;SDS011;65395;53.168;18.156;2023-11-21T03:26:03;20.40;;;10.70;;
76552;SDS011;65395;53.168;18.156;2023-11-21T03:28:30;17.00;;;9.30;;
76552;SDS011;65395;53.168;18.156;2023-11-21T03:30:57;17.70;;;9.60;;
76552;SDS011;65395;53.168;18.156;2023-11-21T03:33:24;23.80;;;10.90;;
76552;SDS011;65395;53.168;18.156;2023-11-21T03:35:51;18.10;;;9.50;;
76552;SDS011;65395;53.168;18.156;2023-11-21T03:38:19;23.90;;;10.90;;
76552;SDS011;65395;53.168;18.156;2023-11-21T03:40:46;18.30;;;9.30;;
76552;SDS011;65395;53.168;18.156;2023-11-21T03:43:13;23.80;;;10.50;;
76552;SDS011;65395;53.168;18.156;2023-11-21T03:45:41;19.40;;;9.50;;
76552;SDS011;65395;53.168;18.156;2023-11-21T03:48:08;20.20;;;9.90;;
76552;SDS011;65395;53.168;18.156;2023-11-21T03:50:37;19.70;;;10.00;;
76552;SDS011;65395;53.168;18.156;2023-11-21T03:53:06;19.80;;;9.40;;
76552;SDS011;65395;53.168;18.156;2023-11-21T03:55:33;21.70;;;9.40;;
76552;SDS011;65395;53.168;18.156;2023-11-21T03:58:00;22.30;;;9.90;;
76552;SDS011;65395;53.168;18.156;2023-11-21T04:00:27;18.50;;;8.90;;
76552;SDS011;65395;53.168;18.156;2023-11-21T04:02:54;21.10;;;9.40;;
76552;SDS011;65395;53.168;18.156;2023-11-21T04:05:23;21.50;;;9.60;;
76552;SDS011;65395;53.168;18.156;2023-11-21T04:07:50;17.30;;;9.40;;
76552;SDS011;65395;53.168;18.156;2023-11-21T04:10:17;19.70;;;9.80;;
76552;SDS011;65395;53.168;18.156;2023-11-21T04:12:44;19.00;;;9.10;;
76552;SDS011;65395;53.168;18.156;2023-11-21T04:15:11;20.90;;;8.10;;
76552;SDS011;65395;53.168;18.156;2023-11-21T04:17:40;20.10;;;9.20;;
76552;SDS011;65395;53.168;18.156;2023-11-21T04:20:08;16.00;;;8.30;;
76552;SDS011;65395;53.168;18.156;2023-11-21T04:22:36;20.90;;;9.00;;
76552;SDS011;65395;53.168;18.156;2023-11-21T04:25:08;21.00;;;9.40;;
76552;SDS011;65395;53.168;18.156;2023-11-21T04:27:38;19.90;;;9.70;;
76552;SDS011;65395;53.168;18.156;2023-11-21T04:30:07;16.80;;;9.30;;
76552;SDS011;65395;53.168;18.156;2023-11-21T04:32:36;17.70;;;8.80;;
76552;SDS011;65395;53.168;18.156;2023-11-21T04:35:03;20.90;;;9.60;;
76552;SDS011;65395;53.168;18.156;2023-11-21T04:37:30;19.60;;;9.10;;
76552;SDS011;65395;53.168;18.156;2023-11-21T04:39:57;18.50;;;8.10;;
76552;SDS011;65395;53.168;18.156;2023-11-21T04:42:24;19.70;;;8.90;;
76552;SDS011;65395;53.168;18.156;2023-11-21T04:44:51;15.90;;;8.50;;
76552;SDS011;65395;53.168;18.156;2023-11-21T04:47:21;19.30;;;9.20;;
76552;SDS011;65395;53.168;18.156;2023-11-21T04:49:48;23.10;;;9.30;;
76552;SDS011;65395;53.168;18.156;2023-11-21T04:52:15;18.00;;;8.10;;
76552;SDS011;65395;53.168;18.156;2023-11-21T04:54:42;17.40;;;8.30;;
76552;SDS011;65395;53.168;18.156;2023-11-21T04:57:09;17.20;;;8.40;;
76552;SDS011;65395;53.168;18.156;2023-11-21T04:59:36;20.40;;;8.40;;
76552;SDS011;65395;53.168;18.156;2023-11-21T05:02:03;19.50;;;8.50;;
76552;SDS011;65395;53.168;18.156;2023-11-21T05:04:31;20.20;;;9.30;;
76552;SDS011;65395;53.168;18.156;2023-11-21T05:06:58;19.20;;;9.00;;
76552;SDS011;65395;53.168;18.156;2023-11-21T05:09:26;21.10;;;9.60;;
76552;SDS011;65395;53.168;18.156;2023-11-21T05:11:54;22.40;;;10.30;;
76552;SDS011;65395;53.168;18.156;2023-11-21T05:14:21;23.40;;;9.50;;
76552;SDS011;65395;53.168;18.156;2023-11-21T05:16:48;17.80;;;8.30;;
76552;SDS011;65395;53.168;18.156;2023-11-21T05:19:17;15.90;;;7.90;;
76552;SDS011;65395;53.168;18.156;2023-11-21T05:21:44;18.20;;;9.20;;
76552;SDS011;65395;53.168;18.156;2023-11-21T05:24:11;21.60;;;9.40;;
76552;SDS011;65395;53.168;18.156;2023-11-21T05:26:38;21.20;;;9.40;;
76552;SDS011;65395;53.168;18.156;2023-11-21T05:29:05;18.80;;;9.20;;
76552;SDS011;65395;53.168;18.156;2023-11-21T05:31:33;20.40;;;9.00;;
76552;SDS011;65395;53.168;18.156;2023-11-21T05:33:59;21.10;;;9.20;;
76552;SDS011;65395;53.168;18.156;2023-11-21T05:36:26;21.00;;;9.40;;
76552;SDS011;65395;53.168;18.156;2023-11-21T05:38:53;21.70;;;9.70;;
76552;SDS011;65395;53.168;18.156;2023-11-21T05:41:20;16.30;;;8.20;;
76552;SDS011;65395;53.168;18.156;2023-11-21T05:43:47;17.50;;;8.40;;
76552;SDS011;65395;53.168;18.156;2023-11-21T05:46:14;20.90;;;9.60;;
76552;SDS011;65395;53.168;18.156;2023-11-21T05:48:41;19.40;;;8.70;;
76552;SDS011;65395;53.168;18.156;2023-11-21T05:51:08;19.50;;;8.80;;
76552;SDS011;65395;53.168;18.156;2023-11-21T05:53:38;21.10;;;9.20;;
76552;SDS011;65395;53.168;18.156;2023-11-21T05:56:05;23.20;;;9.20;;
76552;SDS011;65395;53.168;18.156;2023-11-21T05:58:33;20.30;;;9.20;;
76552;SDS011;65395;53.168;18.156;2023-11-21T06:01:00;21.80;;;9.10;;
76552;SDS011;65395;53.168;18.156;2023-11-21T06:03:27;18.10;;;7.70;;
76552;SDS011;65395;53.168;18.156;2023-11-21T06:05:54;18.00;;;8.10;;
76552;SDS011;65395;53.168;18.156;2023-11-21T06:08:21;19.90;;;8.40;;
76552;SDS011;65395;53.168;18.156;2023-11-21T06:10:48;18.50;;;7.80;;
76552;SDS011;65395;53.168;18.156;2023-11-21T06:13:15;18.60;;;8.70;;
76552;SDS011;65395;53.168;18.156;2023-11-21T06:15:42;16.50;;;7.70;;
76552;SDS011;65395;53.168;18.156;2023-11-21T06:18:09;17.10;;;7.80;;
76552;SDS011;65395;53.168;18.156;2023-11-21T06:20:37;20.70;;;8.50;;
76552;SDS011;65395;53.168;18.156;2023-11-21T06:23:04;19.30;;;8.10;;
76552;SDS011;65395;53.168;18.156;2023-11-21T06:25:32;13.90;;;7.30;;
76552;SDS011;65395;53.168;18.156;2023-11-21T06:28:02;17.10;;;8.40;;
76552;SDS011;65395;53.168;18.156;2023-11-21T06:30:29;19.20;;;8.30;;
76552;SDS011;65395;53.168;18.156;2023-11-21T06:32:56;19.90;;;8.20;;
76552;SDS011;65395;53.168;18.156;2023-11-21T06:35:23;16.10;;;7.60;;
76552;SDS011;65395;53.168;18.156;2023-11-21T06:37:50;18.50;;;8.50;;
76552;SDS011;65395;53.168;18.156;2023-11-21T06:40:18;17.80;;;7.60;;
76552;SDS011;65395;53.168;18.156;2023-11-21T06:42:46;15.00;;;7.60;;
76552;SDS011;65395;53.168;18.156;2023-11-21T06:45:13;17.90;;;7.50;;
76552;SDS011;65395;53.168;18.156;2023-11-21T06:47:41;14.20;;;7.30;;
76552;SDS011;65395;53.168;18.156;2023-11-21T06:50:08;16.50;;;8.20;;
76552;SDS011;65395;53.168;18.156;2023-11-21T06:52:35;18.50;;;8.30;;
76552;SDS011;65395;53.168;18.156;2023-11-21T06:55:02;14.40;;;7.80;;
76552;SDS011;65395;53.168;18.156;2023-11-21T06:57:30;15.20;;;6.70;;
76552;SDS011;65395;53.168;18.156;2023-11-21T06:59:57;14.80;;;6.90;;
76552;SDS011;65395;53.168;18.156;2023-11-21T07:02:24;14.80;;;6.90;;
76552;SDS011;65395;53.168;18.156;2023-11-21T07:04:51;14.70;;;6.80;;
76552;SDS011;65395;53.168;18.156;2023-11-21T07:07:18;14.30;;;7.40;;
76552;SDS011;65395;53.168;18.156;2023-11-21T07:09:46;14.80;;;6.40;;
76552;SDS011;65395;53.168;18.156;2023-11-21T07:12:14;19.50;;;6.40;;
76552;SDS011;65395;53.168;18.156;2023-11-21T07:14:41;27.20;;;7.00;;
76552;SDS011;65395;53.168;18.156;2023-11-21T07:17:11;13.00;;;5.80;;
76552;SDS011;65395;53.168;18.156;2023-11-21T07:19:38;13.80;;;6.30;;
76552;SDS011;65395;53.168;18.156;2023-11-21T07:22:05;11.80;;;5.60;;
76552;SDS011;65395;53.168;18.156;2023-11-21T07:24:38;10.70;;;4.90;;
76552;SDS011;65395;53.168;18.156;2023-11-21T07:27:05;16.20;;;5.60;;
76552;SDS011;65395;53.168;18.156;2023-11-21T07:29:32;13.10;;;6.40;;
76552;SDS011;65395;53.168;18.156;2023-11-21T07:32:00;12.40;;;6.50;;
76552;SDS011;65395;53.168;18.156;2023-11-21T07:34:27;14.60;;;5.90;;
76552;SDS011;65395;53.168;18.156;2023-11-21T07:36:55;13.30;;;5.40;;
76552;SDS011;65395;53.168;18.156;2023-11-21T07:39:22;12.30;;;5.90;;
76552;SDS011;65395;53.168;18.156;2023-11-21T07:41:49;10.60;;;5.80;;
76552;SDS011;65395;53.168;18.156;2023-11-21T07:44:16;10.00;;;5.20;;
76552;SDS011;65395;53.168;18.156;2023-11-21T07:46:47;12.50;;;5.20;;
76552;SDS011;65395;53.168;18.156;2023-11-21T07:49:16;14.60;;;5.70;;
76552;SDS011;65395;53.168;18.156;2023-11-21T07:51:43;23.40;;;6.60;;
76552;SDS011;65395;53.168;18.156;2023-11-21T07:54:10;14.60;;;5.40;;
76552;SDS011;65395;53.168;18.156;2023-11-21T07:56:38;11.40;;;5.60;;
76552;SDS011;65395;53.168;18.156;2023-11-21T07:59:05;10.90;;;5.30;;
76552;SDS011;65395;53.168;18.156;2023-11-21T08:01:32;12.30;;;6.00;;
76552;SDS011;65395;53.168;18.156;2023-11-21T08:03:59;11.60;;;6.00;;
76552;SDS011;65395;53.168;18.156;2023-11-21T08:06:29;11.50;;;5.50;;
76552;SDS011;65395;53.168;18.156;2023-11-21T08:08:57;11.90;;;5.80;;
76552;SDS011;65395;53.168;18.156;2023-11-21T08:11:24;11.60;;;5.20;;
76552;SDS011;65395;53.168;18.156;2023-11-21T08:13:52;8.70;;;4.60;;
76552;SDS011;65395;53.168;18.156;2023-11-21T08:16:20;10.30;;;5.30;;
76552;SDS011;65395;53.168;18.156;2023-11-21T08:18:47;10.00;;;4.90;;
76552;SDS011;65395;53.168;18.156;2023-11-21T08:21:15;10.40;;;5.20;;
76552;SDS011;65395;53.168;18.156;2023-11-21T08:23:42;9.60;;;4.90;;
76552;SDS011;65395;53.168;18.156;2023-11-21T08:26:08;9.40;;;4.90;;
76552;SDS011;65395;53.168;18.156;2023-11-21T08:28:35;11.40;;;5.40;;
76552;SDS011;65395;53.168;18.156;2023-11-21T08:31:03;8.70;;;4.20;;
76552;SDS011;65395;53.168;18.156;2023-11-21T08:33:30;10.90;;;5.20;;
76552;SDS011;65395;53.168;18.156;2023-11-21T08:35:58;9.30;;;4.80;;
76552;SDS011;65395;53.168;18.156;2023-11-21T08:38:27;9.70;;;4.60;;
76552;SDS011;65395;53.168;18.156;2023-11-21T08:40:55;8.50;;;4.60;;
76552;SDS011;65395;53.168;18.156;2023-11-21T08:43:22;10.40;;;4.60;;
76552;SDS011;65395;53.168;18.156;2023-11-21T08:45:49;8.60;;;4.60;;
76552;SDS011;65395;53.168;18.156;2023-11-21T08:48:15;9.40;;;5.50;;
76552;SDS011;65395;53.168;18.156;2023-11-21T08:50:42;8.40;;;4.70;;
76552;SDS011;65395;53.168;18.156;2023-11-21T08:53:10;9.30;;;5.20;;
76552;SDS011;65395;53.168;18.156;2023-11-21T08:55:37;11.70;;;5.30;;
76552;SDS011;65395;53.168;18.156;2023-11-21T08:58:04;11.40;;;5.40;;
76552;SDS011;65395;53.168;18.156;2023-11-21T09:00:32;10.10;;;5.30;;
76552;SDS011;65395;53.168;18.156;2023-11-21T09:03:01;10.20;;;5.60;;
76552;SDS011;65395;53.168;18.156;2023-11-21T09:05:29;14.00;;;5.80;;
76552;SDS011;65395;53.168;18.156;2023-11-21T09:07:56;11.30;;;5.40;;
76552;SDS011;65395;53.168;18.156;2023-11-21T09:10:23;12.60;;;6.00;;
76552;SDS011;65395;53.168;18.156;2023-11-21T09:12:51;11.90;;;6.00;;
76552;SDS011;65395;53.168;18.156;2023-11-21T09:15:19;9.30;;;5.70;;
76552;SDS011;65395;53.168;18.156;2023-11-21T09:17:47;14.00;;;6.00;;
76552;SDS011;65395;53.168;18.156;2023-11-21T09:20:14;12.50;;;5.50;;
76552;SDS011;65395;53.168;18.156;2023-11-21T09:22:41;10.90;;;5.40;;
76552;SDS011;65395;53.168;18.156;2023-11-21T09:25:08;11.30;;;5.60;;
76552;SDS011;65395;53.168;18.156;2023-11-21T09:27:35;10.10;;;5.20;;
76552;SDS011;65395;53.168;18.156;2023-11-21T09:30:02;10.70;;;5.30;;
76552;SDS011;65395;53.168;18.156;2023-11-21T09:32:31;11.80;;;5.00;;
76552;SDS011;65395;53.168;18.156;2023-11-21T09:34:59;9.50;;;5.20;;
76552;SDS011;65395;53.168;18.156;2023-11-21T09:37:29;12.80;;;5.60;;
76552;SDS011;65395;53.168;18.156;2023-11-21T09:39:57;11.70;;;5.10;;
76552;SDS011;65395;53.168;18.156;2023-11-21T09:42:25;10.40;;;5.40;;
76552;SDS011;65395;53.168;18.156;2023-11-21T09:45:03;10.00;;;5.60;;
76552;SDS011;65395;53.168;18.156;2023-11-21T09:47:39;10.80;;;5.50;;
76552;SDS011;65395;53.168;18.156;2023-11-21T09:50:07;10.70;;;5.00;;
76552;SDS011;65395;53.168;18.156;2023-11-21T09:52:41;8.90;;;4.90;;
76552;SDS011;65395;53.168;18.156;2023-11-21T09:55:31;12.40;;;6.20;;
76552;SDS011;65395;53.168;18.156;2023-11-21T09:58:03;9.20;;;5.20;;
76552;SDS011;65395;53.168;18.156;2023-11-21T10:00:34;11.20;;;6.00;;
76552;SDS011;65395;53.168;18.156;2023-11-21T10:03:01;12.40;;;6.00;;
76552;SDS011;65395;53.168;18.156;2023-11-21T10:05:29;10.80;;;6.40;;
76552;SDS011;65395;53.168;18.156;2023-11-21T10:07:56;11.40;;;6.10;;
76552;SDS011;65395;53.168;18.156;2023-11-21T10:10:24;10.10;;;5.40;;
76552;SDS011;65395;53.168;18.156;2023-11-21T10:12:53;9.60;;;5.10;;
76552;SDS011;65395;53.168;18.156;2023-11-21T10:15:23;11.50;;;6.20;;
76552;SDS011;65395;53.168;18.156;2023-11-21T10:17:51;10.80;;;5.60;;
76552;SDS011;65395;53.168;18.156;2023-11-21T10:20:19;11.30;;;5.60;;
76552;SDS011;65395;53.168;18.156;2023-11-21T10:22:48;10.50;;;5.30;;
76552;SDS011;65395;53.168;18.156;2023-11-21T10:25:15;12.90;;;5.90;;
76552;SDS011;65395;53.168;18.156;2023-11-21T10:27:43;12.10;;;5.40;;
76552;SDS011;65395;53.168;18.156;2023-11-21T10:30:14;11.30;;;6.30;;
76552;SDS011;65395;53.168;18.156;2023-11-21T10:32:42;12.10;;;5.80;;
76552;SDS011;65395;53.168;18.156;2023-11-21T10:35:09;12.40;;;6.50;;
76552;SDS011;65395;53.168;18.156;2023-11-21T10:37:37;9.80;;;5.20;;
76552;SDS011;65395;53.168;18.156;2023-11-21T10:40:07;13.10;;;6.20;;
76552;SDS011;65395;53.168;18.156;2023-11-21T10:42:38;10.20;;;5.70;;
76552;SDS011;65395;53.168;18.156;2023-11-21T10:45:07;11.60;;;5.70;;
76552;SDS011;65395;53.168;18.156;2023-11-21T10:47:40;8.90;;;4.70;;
76552;SDS011;65395;53.168;18.156;2023-11-21T10:50:08;10.60;;;5.00;;
76552;SDS011;65395;53.168;18.156;2023-11-21T10:52:37;10.20;;;5.60;;
76552;SDS011;65395;53.168;18.156;2023-11-21T10:57:52;9.60;;;5.20;;
76552;SDS011;65395;53.168;18.156;2023-11-21T11:00:20;9.90;;;5.30;;
76552;SDS011;65395;53.168;18.156;2023-11-21T11:02:50;11.00;;;5.80;;
76552;SDS011;65395;53.168;18.156;2023-11-21T11:05:20;10.40;;;5.70;;
76552;SDS011;65395;53.168;18.156;2023-11-21T11:07:50;12.00;;;6.20;;
76552;SDS011;65395;53.168;18.156;2023-11-21T11:10:26;11.10;;;5.80;;
76552;SDS011;65395;53.168;18.156;2023-11-21T11:12:56;9.40;;;5.40;;
76552;SDS011;65395;53.168;18.156;2023-11-21T11:15:25;12.70;;;5.20;;
76552;SDS011;65395;53.168;18.156;2023-11-21T11:17:53;10.10;;;5.20;;
76552;SDS011;65395;53.168;18.156;2023-11-21T11:20:26;10.30;;;5.70;;
76552;SDS011;65395;53.168;18.156;2023-11-21T11:23:08;9.70;;;5.40;;
76552;SDS011;65395;53.168;18.156;2023-11-21T11:26:01;11.00;;;5.60;;
76552;SDS011;65395;53.168;18.156;2023-11-21T11:28:47;7.90;;;4.70;;
76552;SDS011;65395;53.168;18.156;2023-11-21T11:31:26;10.10;;;5.50;;
76552;SDS011;65395;53.168;18.156;2023-11-21T11:34:08;9.50;;;4.70;;
76552;SDS011;65395;53.168;18.156;2023-11-21T11:39:36;10.90;;;5.30;;
76552;SDS011;65395;53.168;18.156;2023-11-21T11:42:08;10.40;;;5.40;;
76552;SDS011;65395;53.168;18.156;2023-11-21T11:44:46;9.70;;;5.00;;
76552;SDS011;65395;53.168;18.156;2023-11-21T11:47:22;11.00;;;5.90;;
76552;SDS011;65395;53.168;18.156;2023-11-21T11:50:01;9.20;;;4.90;;
76552;SDS011;65395;53.168;18.156;2023-11-21T11:52:39;11.40;;;5.40;;
76552;SDS011;65395;53.168;18.156;2023-11-21T11:55:09;10.80;;;5.00;;
76552;SDS011;65395;53.168;18.156;2023-11-21T11:57:38;9.50;;;5.10;;
76552;SDS011;65395;53.168;18.156;2023-11-21T12:00:08;11.00;;;5.30;;
76552;SDS011;65395;53.168;18.156;2023-11-21T12:02:38;9.60;;;5.10;;
76552;SDS011;65395;53.168;18.156;2023-11-21T12:05:11;10.20;;;5.40;;
76552;SDS011;65395;53.168;18.156;2023-11-21T12:07:42;10.20;;;5.10;;
76552;SDS011;65395;53.168;18.156;2023-11-21T12:10:13;12.80;;;5.50;;
76552;SDS011;65395;53.168;18.156;2023-11-21T12:12:46;10.40;;;5.70;;
76552;SDS011;65395;53.168;18.156;2023-11-21T12:15:14;11.60;;;5.30;;
76552;SDS011;65395;53.168;18.156;2023-11-21T12:17:43;9.00;;;5.10;;
76552;SDS011;65395;53.168;18.156;2023-11-21T12:20:11;9.00;;;5.00;;
76552;SDS011;65395;53.168;18.156;2023-11-21T12:22:42;11.10;;;4.50;;
76552;SDS011;65395;53.168;18.156;2023-11-21T12:25:10;11.10;;;5.90;;
76552;SDS011;65395;53.168;18.156;2023-11-21T12:27:42;10.20;;;5.50;;
76552;SDS011;65395;53.168;18.156;2023-11-21T12:30:11;10.90;;;5.80;;
76552;SDS011;65395;53.168;18.156;2023-11-21T12:32:40;10.60;;;5.70;;
76552;SDS011;65395;53.168;18.156;2023-11-21T12:35:10;10.70;;;5.50;;
76552;SDS011;65395;53.168;18.156;2023-11-21T12:37:38;10.70;;;5.60;;
76552;SDS011;65395;53.168;18.156;2023-11-21T12:40:09;11.80;;;5.50;;
76552;SDS011;65395;53.168;18.156;2023-11-21T12:42:39;9.70;;;5.60;;
76552;SDS011;65395;53.168;18.156;2023-11-21T12:45:09;12.70;;;5.60;;
76552;SDS011;65395;53.168;18.156;2023-11-21T12:47:47;10.60;;;5.30;;
76552;SDS011;65395;53.168;18.156;2023-11-21T12:50:18;11.20;;;5.60;;
76552;SDS011;65395;53.168;18.156;2023-11-21T12:52:53;9.80;;;5.70;;
76552;SDS011;65395;53.168;18.156;2023-11-21T12:55:21;9.40;;;5.20;;
76552;SDS011;65395;53.168;18.156;2023-11-21T12:57:52;9.40;;;4.80;;
76552;SDS011;65395;53.168;18.156;2023-11-21T13:00:28;10.30;;;5.00;;
76552;SDS011;65395;53.168;18.156;2023-11-21T13:03:00;10.30;;;5.30;;
76552;SDS011;65395;53.168;18.156;2023-11-21T13:05:27;9.70;;;5.10;;
76552;SDS011;65395;53.168;18.156;2023-11-21T13:07:58;9.70;;;5.30;;
76552;SDS011;65395;53.168;18.156;2023-11-21T13:10:30;9.10;;;4.80;;
76552;SDS011;65395;53.168;18.156;2023-11-21T13:12:58;11.00;;;5.00;;
76552;SDS011;65395;53.168;18.156;2023-11-21T13:15:26;12.30;;;5.10;;
76552;SDS011;65395;53.168;18.156;2023-11-21T13:17:54;10.10;;;5.00;;
76552;SDS011;65395;53.168;18.156;2023-11-21T13:20:24;9.50;;;4.70;;
76552;SDS011;65395;53.168;18.156;2023-11-21T13:22:52;9.10;;;4.70;;
76552;SDS011;65395;53.168;18.156;2023-11-21T13:25:25;9.20;;;4.50;;
76552;SDS011;65395;53.168;18.156;2023-11-21T13:27:54;11.30;;;5.10;;
76552;SDS011;65395;53.168;18.156;2023-11-21T13:30:21;9.90;;;4.70;;
76552;SDS011;65395;53.168;18.156;2023-11-21T13:32:54;9.70;;;4.60;;
76552;SDS011;65395;53.168;18.156;2023-11-21T13:35:23;7.50;;;4.10;;
76552;SDS011;65395;53.168;18.156;2023-11-21T13:38:05;7.40;;;4.00;;
76552;SDS011;65395;53.168;18.156;2023-11-21T13:40:33;7.20;;;4.30;;
76552;SDS011;65395;53.168;18.156;2023-11-21T13:43:09;8.80;;;4.60;;
76552;SDS011;65395;53.168;18.156;2023-11-21T13:45:37;7.30;;;3.70;;
76552;SDS011;65395;53.168;18.156;2023-11-21T13:48:06;8.90;;;4.20;;
76552;SDS011;65395;53.168;18.156;2023-11-21T13:50:37;9.20;;;4.10;;
76552;SDS011;65395;53.168;18.156;2023-11-21T13:53:05;8.80;;;4.60;;
76552;SDS011;65395;53.168;18.156;2023-11-21T13:55:42;10.60;;;5.40;;
76552;SDS011;65395;53.168;18.156;2023-11-21T13:58:12;9.70;;;5.30;;
76552;SDS011;65395;53.168;18.156;2023-11-21T14:00:45;12.30;;;5.10;;
76552;SDS011;65395;53.168;18.156;2023-11-21T14:03:12;11.40;;;4.90;;
76552;SDS011;65395;53.168;18.156;2023-11-21T14:05:45;13.70;;;5.70;;
76552;SDS011;65395;53.168;18.156;2023-11-21T14:08:14;14.00;;;6.80;;
76552;SDS011;65395;53.168;18.156;2023-11-21T14:10:47;14.30;;;6.40;;
76552;SDS011;65395;53.168;18.156;2023-11-21T14:13:21;11.80;;;5.60;;
76552;SDS011;65395;53.168;18.156;2023-11-21T14:15:50;11.70;;;5.60;;
76552;SDS011;65395;53.168;18.156;2023-11-21T14:18:20;13.80;;;5.90;;
76552;SDS011;65395;53.168;18.156;2023-11-21T14:20:58;9.10;;;4.90;;
76552;SDS011;65395;53.168;18.156;2023-11-21T14:23:24;10.40;;;5.10;;
76552;SDS011;65395;53.168;18.156;2023-11-21T14:25:51;10.20;;;5.20;;
76552;SDS011;65395;53.168;18.156;2023-11-21T14:28:18;11.60;;;5.10;;
76552;SDS011;65395;53.168;18.156;2023-11-21T14:30:46;9.40;;;5.00;;
76552;SDS011;65395;53.168;18.156;2023-11-21T14:33:13;11.00;;;4.60;;
76552;SDS011;65395;53.168;18.156;2023-11-21T14:35:43;9.80;;;4.80;;
76552;SDS011;65395;53.168;18.156;2023-11-21T14:38:10;11.80;;;5.10;;